sensor_id;sensor_type;location;lat;lon;timestamp;pressure;altitude;pressure_sealevel;temperature;humidity
9822;BME280;4950;46.042;14.472;2022-07-19T00:00:13;98624.34;;;20.99;59.84
9822;BME280;4950;46.042;14.472;2022-07-19T00:02:40;98631.09;;;20.95;60.13
9822;BME280;4950;46.042;14.472;2022-07-19T00:05:09;98637.06;;;20.90;60.38
9822;BME280;4950;46.042;14.472;2022-07-19T00:07:36;98632.78;;;20.89;60.67
9822;BME280;4950;46.042;14.472;2022-07-19T00:10:05;98635.22;;;20.90;60.90
9822;BME280;4950;46.042;14.472;2022-07-19T00:12:32;98628.19;;;20.84;60.77
9822;BME280;4950;46.042;14.472;2022-07-19T00:14:59;98633.09;;;20.81;60.78
9822;BME280;4950;46.042;14.472;2022-07-19T00:17:27;98634.56;;;20.77;60.94
9822;BME280;4950;46.042;14.472;2022-07-19T00:19:53;98633.97;;;20.75;61.25
9822;BME280;4950;46.042;14.472;2022-07-19T00:22:20;98632.94;;;20.76;61.05
9822;BME280;4950;46.042;14.472;2022-07-19T00:24:47;98635.88;;;20.67;61.14
9822;BME280;4950;46.042;14.472;2022-07-19T00:27:13;98627.84;;;20.62;60.73
9822;BME280;4950;46.042;14.472;2022-07-19T00:29:40;98637.16;;;20.58;61.09
9822;BME280;4950;46.042;14.472;2022-07-19T00:32:07;98632.69;;;20.40;61.86
9822;BME280;4950;46.042;14.472;2022-07-19T00:34:34;98635.22;;;20.35;62.06
9822;BME280;4950;46.042;14.472;2022-07-19T00:37:01;98634.97;;;20.37;62.03
9822;BME280;4950;46.042;14.472;2022-07-19T00:39:28;98638.84;;;20.34;62.31
9822;BME280;4950;46.042;14.472;2022-07-19T00:41:54;98639.06;;;20.32;61.76
9822;BME280;4950;46.042;14.472;2022-07-19T00:44:22;98638.84;;;20.34;61.71
9822;BME280;4950;46.042;14.472;2022-07-19T00:46:48;98644.94;;;20.35;61.88
9822;BME280;4950;46.042;14.472;2022-07-19T00:49:15;98634.25;;;20.29;62.22
9822;BME280;4950;46.042;14.472;2022-07-19T00:51:44;98644.59;;;20.31;62.13
9822;BME280;4950;46.042;14.472;2022-07-19T00:54:12;98644.63;;;20.24;62.06
9822;BME280;4950;46.042;14.472;2022-07-19T00:56:40;98644.25;;;20.21;62.66
9822;BME280;4950;46.042;14.472;2022-07-19T00:59:07;98644.69;;;20.18;62.64
9822;BME280;4950;46.042;14.472;2022-07-19T01:01:34;98642.50;;;20.15;62.76
9822;BME280;4950;46.042;14.472;2022-07-19T01:04:00;98637.44;;;20.13;63.24
9822;BME280;4950;46.042;14.472;2022-07-19T01:06:27;98641.91;;;20.12;63.05
9822;BME280;4950;46.042;14.472;2022-07-19T01:08:55;98639.25;;;20.12;62.62
9822;BME280;4950;46.042;14.472;2022-07-19T01:11:22;98636.47;;;20.07;62.79
9822;BME280;4950;46.042;14.472;2022-07-19T01:13:48;98637.28;;;20.08;62.77
9822;BME280;4950;46.042;14.472;2022-07-19T01:16:15;98639.34;;;20.06;62.92
9822;BME280;4950;46.042;14.472;2022-07-19T01:18:42;98634.69;;;20.01;63.17
9822;BME280;4950;46.042;14.472;2022-07-19T01:21:17;98634.69;;;20.01;63.56
9822;BME280;4950;46.042;14.472;2022-07-19T01:23:44;98642.00;;;19.99;63.30
9822;BME280;4950;46.042;14.472;2022-07-19T01:26:10;98632.22;;;19.81;63.89
9822;BME280;4950;46.042;14.472;2022-07-19T01:28:37;98631.72;;;19.72;63.91
9822;BME280;4950;46.042;14.472;2022-07-19T01:31:04;98628.03;;;19.73;63.85
9822;BME280;4950;46.042;14.472;2022-07-19T01:33:30;98628.25;;;19.72;63.99
9822;BME280;4950;46.042;14.472;2022-07-19T01:35:57;98636.19;;;19.65;64.26
9822;BME280;4950;46.042;14.472;2022-07-19T01:38:25;98630.69;;;19.67;64.58
9822;BME280;4950;46.042;14.472;2022-07-19T01:40:51;98631.28;;;19.69;64.70
9822;BME280;4950;46.042;14.472;2022-07-19T01:43:18;98623.59;;;19.67;64.78
9822;BME280;4950;46.042;14.472;2022-07-19T01:45:45;98628.94;;;19.61;64.67
9822;BME280;4950;46.042;14.472;2022-07-19T01:48:11;98622.69;;;19.55;64.41
9822;BME280;4950;46.042;14.472;2022-07-19T01:50:38;98617.25;;;19.50;64.77
9822;BME280;4950;46.042;14.472;2022-07-19T01:53:04;98622.88;;;19.53;64.87
9822;BME280;4950;46.042;14.472;2022-07-19T01:55:32;98625.72;;;19.52;65.24
9822;BME280;4950;46.042;14.472;2022-07-19T01:57:59;98619.09;;;19.43;65.02
9822;BME280;4950;46.042;14.472;2022-07-19T02:00:25;98611.47;;;19.34;65.03
9822;BME280;4950;46.042;14.472;2022-07-19T02:02:52;98614.31;;;19.33;65.06
9822;BME280;4950;46.042;14.472;2022-07-19T02:05:19;98613.50;;;19.32;65.37
9822;BME280;4950;46.042;14.472;2022-07-19T02:07:46;98612.91;;;19.30;65.54
9822;BME280;4950;46.042;14.472;2022-07-19T02:10:13;98605.81;;;19.31;65.34
9822;BME280;4950;46.042;14.472;2022-07-19T02:12:42;98606.88;;;19.23;65.40
9822;BME280;4950;46.042;14.472;2022-07-19T02:15:09;98610.53;;;19.22;65.04
9822;BME280;4950;46.042;14.472;2022-07-19T02:17:36;98612.38;;;19.15;65.45
9822;BME280;4950;46.042;14.472;2022-07-19T02:20:03;98620.50;;;19.13;65.56
9822;BME280;4950;46.042;14.472;2022-07-19T02:22:30;98612.00;;;19.11;65.78
9822;BME280;4950;46.042;14.472;2022-07-19T02:24:57;98605.75;;;19.06;66.18
9822;BME280;4950;46.042;14.472;2022-07-19T02:27:23;98605.59;;;19.01;66.38
9822;BME280;4950;46.042;14.472;2022-07-19T02:29:51;98619.34;;;19.03;66.45
9822;BME280;4950;46.042;14.472;2022-07-19T02:32:18;98621.59;;;18.99;67.12
9822;BME280;4950;46.042;14.472;2022-07-19T02:34:44;98620.41;;;18.95;66.87
9822;BME280;4950;46.042;14.472;2022-07-19T02:37:11;98614.75;;;18.91;67.04
9822;BME280;4950;46.042;14.472;2022-07-19T02:39:37;98613.75;;;18.92;67.08
9822;BME280;4950;46.042;14.472;2022-07-19T02:42:04;98623.88;;;18.89;66.86
9822;BME280;4950;46.042;14.472;2022-07-19T02:44:31;98619.84;;;18.80;66.95
9822;BME280;4950;46.042;14.472;2022-07-19T02:46:58;98626.75;;;18.81;67.19
9822;BME280;4950;46.042;14.472;2022-07-19T02:49:25;98618.03;;;18.80;67.77
9822;BME280;4950;46.042;14.472;2022-07-19T02:51:52;98619.44;;;18.83;67.96
9822;BME280;4950;46.042;14.472;2022-07-19T02:54:18;98620.44;;;18.82;67.63
9822;BME280;4950;46.042;14.472;2022-07-19T02:56:45;98620.44;;;18.82;67.38
9822;BME280;4950;46.042;14.472;2022-07-19T02:59:11;98618.44;;;18.77;67.15
9822;BME280;4950;46.042;14.472;2022-07-19T03:01:38;98617.41;;;18.78;67.50
9822;BME280;4950;46.042;14.472;2022-07-19T03:04:06;98619.88;;;18.73;67.75
9822;BME280;4950;46.042;14.472;2022-07-19T03:06:32;98626.53;;;18.69;68.59
9822;BME280;4950;46.042;14.472;2022-07-19T03:08:59;98620.25;;;18.70;68.74
9822;BME280;4950;46.042;14.472;2022-07-19T03:11:25;98621.91;;;18.64;68.86
9822;BME280;4950;46.042;14.472;2022-07-19T03:13:52;98628.59;;;18.60;68.42
9822;BME280;4950;46.042;14.472;2022-07-19T03:16:19;98627.59;;;18.61;68.27
9822;BME280;4950;46.042;14.472;2022-07-19T03:18:45;98626.38;;;18.57;68.43
9822;BME280;4950;46.042;14.472;2022-07-19T03:21:13;98626.78;;;18.47;68.18
9822;BME280;4950;46.042;14.472;2022-07-19T03:23:40;98632.69;;;18.43;67.91
9822;BME280;4950;46.042;14.472;2022-07-19T03:26:06;98628.66;;;18.40;68.07
9822;BME280;4950;46.042;14.472;2022-07-19T03:28:33;98633.13;;;18.40;68.02
9822;BME280;4950;46.042;14.472;2022-07-19T03:31:01;98633.91;;;18.40;68.37
9822;BME280;4950;46.042;14.472;2022-07-19T03:33:27;98637.34;;;18.41;68.68
9822;BME280;4950;46.042;14.472;2022-07-19T03:35:54;98636.13;;;18.43;68.49
9822;BME280;4950;46.042;14.472;2022-07-19T03:38:22;98638.97;;;18.35;69.07
9822;BME280;4950;46.042;14.472;2022-07-19T03:40:49;98629.47;;;18.34;69.17
9822;BME280;4950;46.042;14.472;2022-07-19T03:43:16;98637.38;;;18.34;69.04
9822;BME280;4950;46.042;14.472;2022-07-19T03:45:43;98636.97;;;18.30;68.83
9822;BME280;4950;46.042;14.472;2022-07-19T03:48:11;98638.81;;;18.17;69.11
9822;BME280;4950;46.042;14.472;2022-07-19T03:50:37;98641.63;;;18.02;69.71
9822;BME280;4950;46.042;14.472;2022-07-19T03:53:04;98648.47;;;17.83;70.47
9822;BME280;4950;46.042;14.472;2022-07-19T03:55:32;98641.00;;;17.80;70.63
9822;BME280;4950;46.042;14.472;2022-07-19T03:57:59;98645.03;;;17.82;70.32
9822;BME280;4950;46.042;14.472;2022-07-19T04:00:26;98647.50;;;17.84;70.03
9822;BME280;4950;46.042;14.472;2022-07-19T04:02:52;98654.16;;;17.86;70.07
9822;BME280;4950;46.042;14.472;2022-07-19T04:05:19;98652.75;;;17.90;69.95
9822;BME280;4950;46.042;14.472;2022-07-19T04:07:46;98650.13;;;17.90;70.07
9822;BME280;4950;46.042;14.472;2022-07-19T04:10:12;98653.78;;;18.03;69.96
9822;BME280;4950;46.042;14.472;2022-07-19T04:12:40;98655.19;;;18.05;69.99
9822;BME280;4950;46.042;14.472;2022-07-19T04:15:07;98662.66;;;18.02;69.87
9822;BME280;4950;46.042;14.472;2022-07-19T04:17:35;98659.03;;;17.96;69.79
9822;BME280;4950;46.042;14.472;2022-07-19T04:20:02;98664.28;;;17.96;69.90
9822;BME280;4950;46.042;14.472;2022-07-19T04:22:29;98666.50;;;17.99;69.87
9822;BME280;4950;46.042;14.472;2022-07-19T04:24:55;98664.09;;;17.98;70.17
9822;BME280;4950;46.042;14.472;2022-07-19T04:27:22;98666.50;;;17.99;70.03
9822;BME280;4950;46.042;14.472;2022-07-19T04:29:50;98667.13;;;18.01;70.32
9822;BME280;4950;46.042;14.472;2022-07-19T04:32:16;98665.09;;;18.03;70.61
9822;BME280;4950;46.042;14.472;2022-07-19T04:34:43;98659.22;;;18.01;70.32
9822;BME280;4950;46.042;14.472;2022-07-19T04:37:09;98668.94;;;18.01;70.31
9822;BME280;4950;46.042;14.472;2022-07-19T04:39:36;98665.91;;;17.97;70.17
9822;BME280;4950;46.042;14.472;2022-07-19T04:42:02;98667.13;;;18.01;69.78
9822;BME280;4950;46.042;14.472;2022-07-19T04:44:29;98666.50;;;17.99;70.03
9822;BME280;4950;46.042;14.472;2022-07-19T04:46:57;98664.28;;;18.03;70.35
9822;BME280;4950;46.042;14.472;2022-07-19T04:49:23;98666.69;;;18.04;70.25
9822;BME280;4950;46.042;14.472;2022-07-19T04:51:50;98674.38;;;18.06;70.02
9822;BME280;4950;46.042;14.472;2022-07-19T04:54:17;98670.34;;;18.10;69.94
9822;BME280;4950;46.042;14.472;2022-07-19T04:56:43;98663.88;;;18.12;69.47
9822;BME280;4950;46.042;14.472;2022-07-19T04:59:10;98670.75;;;18.13;69.54
9822;BME280;4950;46.042;14.472;2022-07-19T05:01:36;98665.88;;;18.17;69.22
9822;BME280;4950;46.042;14.472;2022-07-19T05:04:04;98670.34;;;18.10;69.34
9822;BME280;4950;46.042;14.472;2022-07-19T05:06:31;98670.56;;;17.95;70.19
9822;BME280;4950;46.042;14.472;2022-07-19T05:08:58;98669.91;;;17.80;70.33
9822;BME280;4950;46.042;14.472;2022-07-19T05:11:24;98669.50;;;17.83;70.58
9822;BME280;4950;46.042;14.472;2022-07-19T05:13:51;98671.16;;;17.84;70.91
9822;BME280;4950;46.042;14.472;2022-07-19T05:16:17;98673.97;;;17.95;70.80
9822;BME280;4950;46.042;14.472;2022-07-19T05:18:44;98669.94;;;18.00;70.63
9822;BME280;4950;46.042;14.472;2022-07-19T05:21:12;98670.13;;;17.98;70.67
9822;BME280;4950;46.042;14.472;2022-07-19T05:23:39;98669.13;;;17.99;71.08
9822;BME280;4950;46.042;14.472;2022-07-19T05:26:06;98675.19;;;18.00;70.90
9822;BME280;4950;46.042;14.472;2022-07-19T05:28:33;98671.56;;;18.01;70.97
9822;BME280;4950;46.042;14.472;2022-07-19T05:31:00;98680.25;;;18.01;71.01
9822;BME280;4950;46.042;14.472;2022-07-19T05:33:27;98682.09;;;18.01;70.63
9822;BME280;4950;46.042;14.472;2022-07-19T05:35:53;98668.53;;;18.04;70.19
9822;BME280;4950;46.042;14.472;2022-07-19T05:38:22;98670.34;;;18.03;70.50
9822;BME280;4950;46.042;14.472;2022-07-19T05:40:49;98670.94;;;18.05;70.30
9822;BME280;4950;46.042;14.472;2022-07-19T05:43:16;98670.75;;;18.07;70.80
9822;BME280;4950;46.042;14.472;2022-07-19T05:45:42;98672.78;;;18.05;70.56
9822;BME280;4950;46.042;14.472;2022-07-19T05:48:09;98677.59;;;18.08;70.97
9822;BME280;4950;46.042;14.472;2022-07-19T05:50:36;98672.78;;;18.05;70.67
9822;BME280;4950;46.042;14.472;2022-07-19T05:53:02;98672.97;;;18.17;70.94
9822;BME280;4950;46.042;14.472;2022-07-19T05:55:30;98676.59;;;18.15;71.36
9822;BME280;4950;46.042;14.472;2022-07-19T05:57:57;98667.13;;;18.14;71.58
9822;BME280;4950;46.042;14.472;2022-07-19T06:00:23;98667.50;;;18.18;71.13
9822;BME280;4950;46.042;14.472;2022-07-19T06:02:50;98673.97;;;18.15;71.29
9822;BME280;4950;46.042;14.472;2022-07-19T06:05:17;98661.44;;;18.18;71.70
9822;BME280;4950;46.042;14.472;2022-07-19T06:07:43;98670.34;;;18.30;71.69
9822;BME280;4950;46.042;14.472;2022-07-19T06:10:10;98660.59;;;18.37;71.49
9822;BME280;4950;46.042;14.472;2022-07-19T06:12:38;98660.97;;;18.47;71.30
9822;BME280;4950;46.042;14.472;2022-07-19T06:15:05;98667.03;;;18.54;70.61
9822;BME280;4950;46.042;14.472;2022-07-19T06:17:31;98669.44;;;18.63;70.39
9822;BME280;4950;46.042;14.472;2022-07-19T06:19:58;98662.56;;;18.68;69.84
9822;BME280;4950;46.042;14.472;2022-07-19T06:22:24;98665.97;;;18.69;69.89
9822;BME280;4950;46.042;14.472;2022-07-19T06:24:51;98671.03;;;18.77;70.08
9822;BME280;4950;46.042;14.472;2022-07-19T06:27:18;98666.56;;;18.78;69.79
9822;BME280;4950;46.042;14.472;2022-07-19T06:29:45;98663.16;;;18.77;69.52
9822;BME280;4950;46.042;14.472;2022-07-19T06:32:12;98663.34;;;18.82;69.11
9822;BME280;4950;46.042;14.472;2022-07-19T06:34:39;98659.28;;;18.86;69.51
9822;BME280;4950;46.042;14.472;2022-07-19T06:37:05;98670.19;;;18.97;69.90
9822;BME280;4950;46.042;14.472;2022-07-19T06:39:32;98670.59;;;19.00;69.29
9822;BME280;4950;46.042;14.472;2022-07-19T06:41:58;98670.53;;;19.07;69.05
9822;BME280;4950;46.042;14.472;2022-07-19T06:44:26;98667.84;;;19.20;69.05
9822;BME280;4950;46.042;14.472;2022-07-19T06:46:54;98665.97;;;19.27;67.97
9822;BME280;4950;46.042;14.472;2022-07-19T06:49:20;98662.13;;;19.30;68.10
9822;BME280;4950;46.042;14.472;2022-07-19T06:51:47;98655.59;;;19.39;67.83
9822;BME280;4950;46.042;14.472;2022-07-19T06:54:13;98654.91;;;19.50;66.83
9822;BME280;4950;46.042;14.472;2022-07-19T06:56:40;98658.09;;;19.59;65.49
9822;BME280;4950;46.042;14.472;2022-07-19T06:59:07;98657.06;;;19.60;65.32
9822;BME280;4950;46.042;14.472;2022-07-19T07:01:33;98653.22;;;19.63;65.16
9822;BME280;4950;46.042;14.472;2022-07-19T07:04:01;98662.91;;;19.69;65.14
9822;BME280;4950;46.042;14.472;2022-07-19T07:06:28;98655.16;;;19.81;64.47
9822;BME280;4950;46.042;14.472;2022-07-19T07:08:54;98656.34;;;19.85;63.60
9822;BME280;4950;46.042;14.472;2022-07-19T07:11:21;98657.94;;;19.86;62.95
9822;BME280;4950;46.042;14.472;2022-07-19T07:13:47;98656.06;;;19.93;62.80
9822;BME280;4950;46.042;14.472;2022-07-19T07:16:14;98650.72;;;20.00;62.82
9822;BME280;4950;46.042;14.472;2022-07-19T07:18:40;98650.88;;;20.05;62.57
9822;BME280;4950;46.042;14.472;2022-07-19T07:21:08;98651.84;;;20.10;62.89
9822;BME280;4950;46.042;14.472;2022-07-19T07:23:35;98652.63;;;20.18;62.53
9822;BME280;4950;46.042;14.472;2022-07-19T07:26:02;98648.06;;;20.25;62.81
9822;BME280;4950;46.042;14.472;2022-07-19T07:28:28;98649.63;;;20.32;62.59
9822;BME280;4950;46.042;14.472;2022-07-19T07:30:55;98638.44;;;20.37;62.49
9822;BME280;4950;46.042;14.472;2022-07-19T07:33:21;98639.53;;;20.48;62.39
9822;BME280;4950;46.042;14.472;2022-07-19T07:35:49;98639.09;;;20.51;62.43
9822;BME280;4950;46.042;14.472;2022-07-19T07:38:17;98639.81;;;20.58;62.53
9822;BME280;4950;46.042;14.472;2022-07-19T07:40:43;98633.63;;;20.71;62.06
9822;BME280;4950;46.042;14.472;2022-07-19T07:43:10;98628.63;;;20.81;62.28
9822;BME280;4950;46.042;14.472;2022-07-19T07:45:37;98633.72;;;20.95;61.94
9822;BME280;4950;46.042;14.472;2022-07-19T07:48:03;98632.19;;;21.05;61.88
9822;BME280;4950;46.042;14.472;2022-07-19T07:50:30;98623.16;;;21.13;60.91
9822;BME280;4950;46.042;14.472;2022-07-19T07:52:57;98634.19;;;21.22;60.02
9822;BME280;4950;46.042;14.472;2022-07-19T07:55:25;98622.88;;;21.33;60.68
9822;BME280;4950;46.042;14.472;2022-07-19T07:57:51;98616.28;;;21.54;59.78
9822;BME280;4950;46.042;14.472;2022-07-19T08:00:18;98626.19;;;21.71;59.54
9822;BME280;4950;46.042;14.472;2022-07-19T08:02:45;98619.91;;;21.83;58.19
9822;BME280;4950;46.042;14.472;2022-07-19T08:05:14;98617.34;;;22.00;57.75
9822;BME280;4950;46.042;14.472;2022-07-19T08:07:41;98620.00;;;22.12;57.13
9822;BME280;4950;46.042;14.472;2022-07-19T08:10:08;98624.63;;;22.17;57.69
9822;BME280;4950;46.042;14.472;2022-07-19T08:12:36;98620.91;;;22.18;57.05
9822;BME280;4950;46.042;14.472;2022-07-19T08:15:04;98614.59;;;22.19;57.66
9822;BME280;4950;46.042;14.472;2022-07-19T08:17:31;98610.47;;;22.23;57.26
9822;BME280;4950;46.042;14.472;2022-07-19T08:19:58;98612.63;;;22.38;56.16
9822;BME280;4950;46.042;14.472;2022-07-19T08:22:24;98616.06;;;22.62;52.80
9822;BME280;4950;46.042;14.472;2022-07-19T08:24:52;98607.59;;;22.77;52.25
9822;BME280;4950;46.042;14.472;2022-07-19T08:27:19;98603.66;;;22.91;53.15
9822;BME280;4950;46.042;14.472;2022-07-19T08:29:47;98600.16;;;23.02;52.49
9822;BME280;4950;46.042;14.472;2022-07-19T08:32:14;98605.66;;;23.13;52.68
9822;BME280;4950;46.042;14.472;2022-07-19T08:34:40;98602.78;;;23.14;51.29
9822;BME280;4950;46.042;14.472;2022-07-19T08:37:07;98600.13;;;23.14;51.24
9822;BME280;4950;46.042;14.472;2022-07-19T08:39:34;98590.28;;;23.26;49.54
9822;BME280;4950;46.042;14.472;2022-07-19T08:42:00;98587.63;;;23.43;48.28
9822;BME280;4950;46.042;14.472;2022-07-19T08:44:28;98587.06;;;23.58;49.81
9822;BME280;4950;46.042;14.472;2022-07-19T08:46:57;98588.03;;;23.69;49.32
9822;BME280;4950;46.042;14.472;2022-07-19T08:49:25;98582.81;;;23.74;48.45
9822;BME280;4950;46.042;14.472;2022-07-19T08:51:51;98576.69;;;23.74;49.37
9822;BME280;4950;46.042;14.472;2022-07-19T08:54:18;98578.31;;;23.75;48.58
9822;BME280;4950;46.042;14.472;2022-07-19T08:56:45;98577.44;;;23.86;48.31
9822;BME280;4950;46.042;14.472;2022-07-19T08:59:29;98581.59;;;23.99;48.68
9822;BME280;4950;46.042;14.472;2022-07-19T09:01:58;98570.88;;;24.11;46.52
9822;BME280;4950;46.042;14.472;2022-07-19T09:04:25;98576.16;;;24.28;46.15
9822;BME280;4950;46.042;14.472;2022-07-19T09:06:55;98573.09;;;24.58;45.22
9822;BME280;4950;46.042;14.472;2022-07-19T09:09:25;98569.84;;;24.78;44.99
9822;BME280;4950;46.042;14.472;2022-07-19T09:11:54;98568.66;;;24.91;43.96
9822;BME280;4950;46.042;14.472;2022-07-19T09:14:21;98569.81;;;25.00;42.75
9822;BME280;4950;46.042;14.472;2022-07-19T09:16:55;98573.38;;;25.11;42.04
9822;BME280;4950;46.042;14.472;2022-07-19T09:19:24;98582.75;;;25.18;42.32
9822;BME280;4950;46.042;14.472;2022-07-19T09:21:57;98576.94;;;25.21;41.32
9822;BME280;4950;46.042;14.472;2022-07-19T09:24:25;98571.38;;;25.23;42.00
9822;BME280;4950;46.042;14.472;2022-07-19T09:26:58;98561.47;;;25.46;42.34
9822;BME280;4950;46.042;14.472;2022-07-19T09:29:25;98554.81;;;25.48;42.65
9822;BME280;4950;46.042;14.472;2022-07-19T09:32:08;98557.59;;;25.58;42.36
9822;BME280;4950;46.042;14.472;2022-07-19T09:34:37;98564.06;;;25.73;43.34
9822;BME280;4950;46.042;14.472;2022-07-19T09:37:09;98563.06;;;25.84;42.53
9822;BME280;4950;46.042;14.472;2022-07-19T09:39:36;98557.13;;;26.09;42.24
9822;BME280;4950;46.042;14.472;2022-07-19T09:42:05;98555.31;;;26.25;42.34
9822;BME280;4950;46.042;14.472;2022-07-19T09:44:31;98552.44;;;26.37;42.15
9822;BME280;4950;46.042;14.472;2022-07-19T09:46:58;98561.25;;;26.43;43.10
9822;BME280;4950;46.042;14.472;2022-07-19T09:49:25;98557.53;;;26.49;42.66
9822;BME280;4950;46.042;14.472;2022-07-19T09:51:54;98558.84;;;26.46;41.76
9822;BME280;4950;46.042;14.472;2022-07-19T09:54:22;98552.97;;;26.44;41.21
9822;BME280;4950;46.042;14.472;2022-07-19T09:56:50;98555.97;;;26.53;42.05
9822;BME280;4950;46.042;14.472;2022-07-19T09:59:18;98556.75;;;26.53;42.92
9822;BME280;4950;46.042;14.472;2022-07-19T10:01:46;98543.47;;;26.64;42.20
9822;BME280;4950;46.042;14.472;2022-07-19T10:04:16;98551.50;;;26.69;43.17
9822;BME280;4950;46.042;14.472;2022-07-19T10:06:44;98547.00;;;26.74;44.33
9822;BME280;4950;46.042;14.472;2022-07-19T10:09:15;98545.13;;;26.80;42.30
9822;BME280;4950;46.042;14.472;2022-07-19T10:11:42;98542.25;;;27.07;38.81
9822;BME280;4950;46.042;14.472;2022-07-19T10:14:09;98542.25;;;27.17;38.43
9822;BME280;4950;46.042;14.472;2022-07-19T10:16:49;98528.41;;;27.26;39.86
9822;BME280;4950;46.042;14.472;2022-07-19T10:19:20;98530.78;;;27.22;40.59
9822;BME280;4950;46.042;14.472;2022-07-19T10:21:49;98532.13;;;27.30;39.08
9822;BME280;4950;46.042;14.472;2022-07-19T10:24:43;98529.47;;;27.40;38.27
9822;BME280;4950;46.042;14.472;2022-07-19T10:27:10;98525.47;;;27.43;35.15
9822;BME280;4950;46.042;14.472;2022-07-19T10:29:36;98532.13;;;27.50;35.33
9822;BME280;4950;46.042;14.472;2022-07-19T10:32:04;98528.09;;;27.73;35.57
9822;BME280;4950;46.042;14.472;2022-07-19T10:34:32;98535.28;;;27.93;35.60
9822;BME280;4950;46.042;14.472;2022-07-19T10:36:59;98535.22;;;28.04;36.17
9822;BME280;4950;46.042;14.472;2022-07-19T10:39:27;98534.72;;;28.02;35.72
9822;BME280;4950;46.042;14.472;2022-07-19T10:42:15;98530.97;;;28.03;35.86
9822;BME280;4950;46.042;14.472;2022-07-19T10:45:09;98527.78;;;28.01;35.23
9822;BME280;4950;46.042;14.472;2022-07-19T10:50:57;98519.66;;;28.26;32.30
9822;BME280;4950;46.042;14.472;2022-07-19T10:53:57;98510.81;;;28.31;31.68
9822;BME280;4950;46.042;14.472;2022-07-19T10:56:36;98511.97;;;28.69;30.38
9822;BME280;4950;46.042;14.472;2022-07-19T10:59:05;98515.88;;;28.82;31.06
9822;BME280;4950;46.042;14.472;2022-07-19T11:01:33;98518.53;;;28.87;30.21
9822;BME280;4950;46.042;14.472;2022-07-19T11:04:23;98515.88;;;28.87;30.57
9822;BME280;4950;46.042;14.472;2022-07-19T11:06:50;98513.03;;;28.73;31.55
9822;BME280;4950;46.042;14.472;2022-07-19T11:09:17;98516.50;;;28.69;30.27
9822;BME280;4950;46.042;14.472;2022-07-19T11:11:43;98515.50;;;28.60;30.47
9822;BME280;4950;46.042;14.472;2022-07-19T11:14:11;98503.47;;;28.57;30.95
9822;BME280;4950;46.042;14.472;2022-07-19T11:16:38;98499.75;;;28.58;31.78
9822;BME280;4950;46.042;14.472;2022-07-19T11:19:08;98496.91;;;28.84;30.73
9822;BME280;4950;46.042;14.472;2022-07-19T11:21:36;98497.06;;;28.98;30.79
9822;BME280;4950;46.042;14.472;2022-07-19T11:24:03;98499.66;;;29.08;30.58
9822;BME280;4950;46.042;14.472;2022-07-19T11:26:34;98492.72;;;29.12;30.88
9822;BME280;4950;46.042;14.472;2022-07-19T11:29:02;98482.44;;;29.24;30.40
9822;BME280;4950;46.042;14.472;2022-07-19T11:31:30;98488.34;;;29.21;29.35
9822;BME280;4950;46.042;14.472;2022-07-19T11:33:57;98480.13;;;29.12;29.90
9822;BME280;4950;46.042;14.472;2022-07-19T11:36:25;98472.50;;;29.30;31.02
9822;BME280;4950;46.042;14.472;2022-07-19T11:38:54;98471.53;;;29.45;29.30
9822;BME280;4950;46.042;14.472;2022-07-19T11:41:22;98483.50;;;29.52;29.44
9822;BME280;4950;46.042;14.472;2022-07-19T11:43:53;98477.84;;;29.54;29.35
9822;BME280;4950;46.042;14.472;2022-07-19T11:46:20;98461.00;;;29.53;29.92
9822;BME280;4950;46.042;14.472;2022-07-19T11:48:49;98481.31;;;29.54;28.69
9822;BME280;4950;46.042;14.472;2022-07-19T11:51:17;98468.03;;;29.49;29.15
9822;BME280;4950;46.042;14.472;2022-07-19T11:53:49;98466.47;;;29.67;29.03
9822;BME280;4950;46.042;14.472;2022-07-19T11:56:18;98461.81;;;29.54;28.27
9822;BME280;4950;46.042;14.472;2022-07-19T11:58:45;98456.22;;;29.50;28.98
9822;BME280;4950;46.042;14.472;2022-07-19T12:01:12;98455.91;;;29.57;29.52
9822;BME280;4950;46.042;14.472;2022-07-19T12:03:38;98452.91;;;29.59;29.42
9822;BME280;4950;46.042;14.472;2022-07-19T12:06:08;98450.66;;;29.71;29.54
9822;BME280;4950;46.042;14.472;2022-07-19T12:08:37;98445.19;;;29.81;30.09
9822;BME280;4950;46.042;14.472;2022-07-19T12:11:21;98447.59;;;29.83;29.47
9822;BME280;4950;46.042;14.472;2022-07-19T12:13:49;98445.06;;;29.91;29.39
9822;BME280;4950;46.042;14.472;2022-07-19T12:16:16;98433.34;;;29.87;29.15
9822;BME280;4950;46.042;14.472;2022-07-19T12:18:46;98443.28;;;30.06;30.31
9822;BME280;4950;46.042;14.472;2022-07-19T12:21:20;98432.41;;;29.97;29.15
9822;BME280;4950;46.042;14.472;2022-07-19T12:24:16;98424.66;;;29.96;28.92
9822;BME280;4950;46.042;14.472;2022-07-19T12:26:52;98433.38;;;30.06;29.43
9822;BME280;4950;46.042;14.472;2022-07-19T12:29:22;98431.63;;;29.97;28.99
9822;BME280;4950;46.042;14.472;2022-07-19T12:31:51;98419.81;;;29.98;29.90
9822;BME280;4950;46.042;14.472;2022-07-19T12:34:18;98422.50;;;30.17;29.66
9822;BME280;4950;46.042;14.472;2022-07-19T12:36:46;98427.66;;;30.13;29.72
9822;BME280;4950;46.042;14.472;2022-07-19T12:39:18;98416.97;;;30.32;28.87
9822;BME280;4950;46.042;14.472;2022-07-19T12:42:01;98409.47;;;30.29;30.20
9822;BME280;4950;46.042;14.472;2022-07-19T12:44:27;98405.78;;;30.25;29.88
9822;BME280;4950;46.042;14.472;2022-07-19T12:46:55;98405.50;;;30.26;29.33
9822;BME280;4950;46.042;14.472;2022-07-19T12:49:22;98402.13;;;30.40;28.81
9822;BME280;4950;46.042;14.472;2022-07-19T12:51:51;98407.31;;;30.50;29.93
9822;BME280;4950;46.042;14.472;2022-07-19T12:54:18;98405.09;;;30.71;27.99
9822;BME280;4950;46.042;14.472;2022-07-19T12:56:45;98406.00;;;30.66;28.22
9822;BME280;4950;46.042;14.472;2022-07-19T12:59:11;98411.22;;;30.58;27.62
9822;BME280;4950;46.042;14.472;2022-07-19T13:01:55;98403.16;;;30.58;28.77
9822;BME280;4950;46.042;14.472;2022-07-19T13:04:22;98401.78;;;30.60;27.76
9822;BME280;4950;46.042;14.472;2022-07-19T13:06:50;98414.13;;;30.42;27.97
9822;BME280;4950;46.042;14.472;2022-07-19T13:09:17;98402.75;;;30.50;29.36
9822;BME280;4950;46.042;14.472;2022-07-19T13:11:44;98398.25;;;30.65;28.24
9822;BME280;4950;46.042;14.472;2022-07-19T13:14:11;98399.50;;;30.54;27.79
9822;BME280;4950;46.042;14.472;2022-07-19T13:16:38;98397.75;;;30.63;28.04